Time;durP1;ratioP1;P1;durP2;ratioP2;P2;SDS_P1;SDS_P2;PMS_P1;PMS_P2;Temp;Humidity;BMP_temperature;BMP_pressure;BME280_temperature;BME280_humidity;BME280_pressure;Samples;Min_cycle;Max_cycle;Signal;HPM_P1;HPM_P2
2021/01/25 00:00:11;;;;;;;;;23.25;23.25;;;;;7.41;75.66;100846.53;6153520;23;11606;-70
2021/01/25 00:03:07;;;;;;;;;32.00;29.00;;;;;7.47;74.95;100848.06;6153458;23;11598;-70
2021/01/25 00:06:03;;;;;;;;;30.50;30.50;;;;;7.60;74.31;100864.91;6153457;23;11712;-71
2021/01/25 00:08:58;;;;;;;;;31.25;30.75;;;;;7.56;74.00;100869.38;6153427;23;11646;-70
2021/01/25 00:11:54;;;;;;;;;35.50;34.75;;;;;7.28;74.92;100874.03;6154722;23;11623;-70
2021/01/25 00:14:37;;;;;;;;;35.75;32.25;;;;;7.36;74.50;100865.09;6164857;23;11597;-71
2021/01/25 00:17:32;;;;;;;;;27.25;26.25;;;;;7.26;74.80;100855.09;6155376;23;11623;-71
2021/01/25 00:20:28;;;;;;;;;22.75;22.75;;;;;7.31;73.66;100859.69;6155163;23;11593;-72
2021/01/25 00:23:23;;;;;;;;;26.00;24.50;;;;;7.39;73.55;100861.75;6155437;23;12422;-71
2021/01/25 00:26:19;;;;;;;;;25.50;25.50;;;;;7.41;72.83;100860.31;6136003;23;11581;-71
2021/01/25 00:29:15;;;;;;;;;22.00;21.50;;;;;7.32;73.26;100861.31;6155334;23;11600;-70
2021/01/25 00:32:10;;;;;;;;;26.25;26.25;;;;;7.36;73.01;100856.81;6155366;23;11582;-70
2021/01/25 00:34:38;;;;;;;;;23.00;22.25;;;;;7.33;73.20;100855.50;6165114;23;11586;-70
2021/01/25 00:37:34;;;;;;;;;26.00;25.50;;;;;7.26;73.32;100857.84;6155220;23;11622;-70
2021/01/25 00:40:29;;;;;;;;;25.00;23.00;;;;;7.26;72.85;100871.59;6155195;23;12308;-70
2021/01/25 00:43:25;;;;;;;;;28.25;24.50;;;;;7.28;72.97;100877.59;6106204;23;11617;-70
2021/01/25 00:46:21;;;;;;;;;23.00;23.00;;;;;7.23;73.42;100867.53;6125512;23;11711;-70
2021/01/25 00:49:16;;;;;;;;;28.50;27.50;;;;;7.30;73.20;100860.81;6125652;23;11639;-70
2021/01/25 00:51:44;;;;;;;;;23.00;23.00;;;;;7.24;73.62;100871.91;6135690;23;11687;-70
2021/01/25 00:54:39;;;;;;;;;33.25;31.50;;;;;7.16;73.98;100866.31;6125725;23;12413;-70
2021/01/25 00:57:35;;;;;;;;;22.75;22.50;;;;;7.22;73.77;100851.34;6106288;23;11631;-70
2021/01/25 01:00:30;;;;;;;;;25.25;25.25;;;;;7.07;73.91;100857.94;6125654;23;11605;-70
2021/01/25 01:03:26;;;;;;;;;25.50;22.50;;;;;7.12;73.43;100851.50;6125398;23;11711;-70
2021/01/25 01:06:21;;;;;;;;;27.50;27.50;;;;;7.06;73.48;100867.31;6125579;23;11602;-70
2021/01/25 01:09:17;;;;;;;;;22.75;22.75;;;;;7.17;73.04;100867.94;6125451;23;11689;-70
2021/01/25 01:11:53;;;;;;;;;23.00;23.00;;;;;7.11;73.52;100864.44;6135321;23;12379;-70
2021/01/25 01:14:48;;;;;;;;;27.50;27.00;;;;;7.17;73.02;100874.25;6125472;23;11622;-70
2021/01/25 01:17:44;;;;;;;;;34.25;33.00;;;;;7.12;73.32;100866.06;6125397;23;11645;-70
2021/01/25 01:20:40;;;;;;;;;32.75;32.00;;;;;7.04;73.48;100882.47;6125479;23;11630;-70
2021/01/25 01:23:36;;;;;;;;;29.75;29.75;;;;;6.93;73.62;100874.41;6125321;23;12408;-70
2021/01/25 01:26:32;;;;;;;;;35.00;31.25;;;;;7.04;73.85;100865.97;6125330;23;11618;-70
2021/01/25 01:29:27;;;;;;;;;27.75;27.75;;;;;7.08;73.39;100864.25;6125370;23;11632;-70
2021/01/25 01:32:23;;;;;;;;;27.00;27.00;;;;;7.02;73.50;100848.97;6125213;23;11643;-69
2021/01/25 01:34:51;;;;;;;;;33.50;33.50;;;;;6.97;73.74;100861.66;6135342;23;11626;-70
2021/01/25 01:37:47;;;;;;;;;29.00;29.00;;;;;7.02;73.47;100854.47;6125101;23;11622;-70
2021/01/25 01:40:42;;;;;;;;;28.00;28.00;;;;;6.97;73.64;100849.84;6105711;23;12339;-70
2021/01/25 01:43:38;;;;;;;;;27.00;27.00;;;;;7.06;73.27;100839.81;6125155;23;11678;-70
2021/01/25 01:46:05;;;;;;;;;38.00;35.50;;;;;6.94;73.79;100842.22;6134882;23;11591;-70
2021/01/25 01:49:01;;;;;;;;;28.75;28.75;;;;;6.90;73.42;100832.94;6125081;23;11616;-70
2021/01/25 01:51:57;;;;;;;;;37.25;37.25;;;;;6.99;73.69;100824.84;6125045;23;11675;-70
2021/01/25 01:54:59;;;;;;;;;30.75;28.50;;;;;6.91;73.96;100831.84;6125167;23;11717;-71
2021/01/25 01:57:56;;;;;;;;;27.50;26.25;;;;;6.93;73.53;100835.09;6125010;23;11635;-71
2021/01/25 02:00:51;;;;;;;;;35.25;35.25;;;;;6.71;74.71;100830.25;6124687;23;11729;-70
2021/01/25 02:03:47;;;;;;;;;35.00;33.75;;;;;6.82;74.59;100834.44;6124855;23;11620;-70
2021/01/25 02:06:43;;;;;;;;;41.50;37.25;;;;;6.79;74.93;100829.56;6124884;23;11630;-70
2021/01/25 02:09:42;;;;;;;;;37.25;35.75;;;;;6.83;74.10;100827.84;6124743;23;11714;-70
2021/01/25 02:12:38;;;;;;;;;32.00;29.25;;;;;6.82;74.18;100812.47;6124733;23;12311;-70
2021/01/25 02:15:34;;;;;;;;;29.75;29.50;;;;;6.74;74.98;100809.59;6124815;23;11839;-70
2021/01/25 02:18:33;;;;;;;;;48.75;39.25;;;;;6.80;74.38;100824.88;6124598;23;11707;-70
2021/01/25 02:21:32;;;;;;;;;32.50;32.50;;;;;6.88;74.36;100825.00;6124849;23;11597;-70
2021/01/25 02:24:41;;;;;;;;;37.50;37.00;;;;;6.87;74.89;100825.31;6124872;23;11630;-70
2021/01/25 02:27:39;;;;;;;;;36.25;35.50;;;;;6.83;75.14;100830.59;6124666;23;11621;-70
2021/01/25 02:30:37;;;;;;;;;44.25;40.50;;;;;6.84;75.39;100826.75;6124822;23;11617;-70
2021/01/25 02:33:36;;;;;;;;;37.50;33.50;;;;;6.75;76.19;100833.22;6124610;23;11608;-70
2021/01/25 02:36:33;;;;;;;;;50.00;41.25;;;;;6.87;75.63;100844.56;6124544;23;11699;-70
2021/01/25 02:39:30;;;;;;;;;26.50;25.50;;;;;6.89;75.76;100840.38;6124539;23;11598;-69
2021/01/25 02:42:26;;;;;;;;;32.25;32.25;;;;;6.99;75.38;100835.84;6143205;23;11710;-70
2021/01/25 02:44:58;;;;;;;;;40.50;36.00;;;;;6.86;75.91;100834.69;6138224;23;11623;-70
2021/01/25 02:47:54;;;;;;;;;33.50;33.50;;;;;6.91;76.03;100835.41;6154144;23;11703;-70
2021/01/25 02:50:51;;;;;;;;;32.00;32.00;;;;;7.02;75.79;100843.47;6134418;23;12414;-70
2021/01/25 02:53:47;;;;;;;;;32.50;29.25;;;;;6.96;75.98;100815.22;6154175;23;11599;-70
2021/01/25 02:56:43;;;;;;;;;34.25;33.25;;;;;7.04;75.54;100825.53;6154057;23;11628;-70
2021/01/25 02:59:32;;;;;;;;;30.25;29.50;;;;;7.01;75.81;100814.34;6156221;23;11713;-70
2021/01/25 03:02:28;;;;;;;;;27.25;27.00;;;;;7.03;75.86;100818.41;6153813;23;11629;-70
2021/01/25 03:05:23;;;;;;;;;41.00;37.25;;;;;7.14;76.04;100821.78;6153828;23;11612;-70
2021/01/25 03:08:19;;;;;;;;;32.75;30.25;;;;;7.12;76.07;100824.00;6153825;23;11599;-70
2021/01/25 03:10:47;;;;;;;;;23.75;23.50;;;;;7.07;76.38;100824.94;6163573;23;11675;-70
2021/01/25 03:13:42;;;;;;;;;30.25;28.50;;;;;7.11;76.50;100820.44;6153648;23;11749;-70
2021/01/25 03:16:38;;;;;;;;;36.75;35.25;;;;;7.24;75.80;100816.09;6153762;23;11581;-70
2021/01/25 03:19:33;;;;;;;;;8.25;8.25;;;;;7.28;75.87;100817.09;6153996;23;11777;-70
2021/01/25 03:22:29;;;;;;;;;31.50;29.25;;;;;7.20;76.29;100818.63;6153252;23;11607;-70
2021/01/25 03:25:25;;;;;;;;;34.25;32.00;;;;;7.24;76.36;100819.66;6153695;23;11598;-70
2021/01/25 03:28:20;;;;;;;;;30.00;30.00;;;;;7.34;75.79;100824.13;6153609;23;11572;-70
2021/01/25 03:31:16;;;;;;;;;27.25;25.25;;;;;7.46;75.77;100820.88;6153781;23;11621;-70
2021/01/25 03:33:57;;;;;;;;;31.50;31.25;;;;;7.37;75.84;100818.03;6153749;23;11594;-70
2021/01/25 03:36:53;;;;;;;;;39.50;39.00;;;;;7.41;75.96;100820.97;6153504;23;11668;-70
2021/01/25 03:39:49;;;;;;;;;41.50;39.00;;;;;7.47;75.65;100820.56;6153544;23;11606;-70
2021/01/25 03:42:44;;;;;;;;;43.00;39.50;;;;;7.59;75.42;100821.97;6153166;23;12479;-70
2021/01/25 03:45:40;;;;;;;;;35.75;34.25;;;;;7.52;76.10;100825.16;6153853;23;11628;-70
2021/01/25 03:48:36;;;;;;;;;35.00;34.25;;;;;7.59;75.69;100821.97;6155704;23;11646;-70
2021/01/25 03:51:04;;;;;;;;;35.25;35.25;;;;;7.55;75.64;100816.28;6165663;23;11620;-70
2021/01/25 03:54:00;;;;;;;;;35.00;34.50;;;;;7.57;75.94;100822.28;6155282;23;11601;-70
2021/01/25 03:56:55;;;;;;;;;41.50;37.50;;;;;7.65;75.66;100826.25;6155271;23;11694;-70
2021/01/25 03:59:51;;;;;;;;;43.50;40.25;;;;;7.65;75.71;100829.81;6136069;23;11633;-70
2021/01/25 04:02:46;;;;;;;;;46.75;40.00;;;;;7.68;75.84;100831.97;6155526;23;11607;-70
2021/01/25 04:05:42;;;;;;;;;37.25;36.50;;;;;7.69;75.60;100821.75;6155500;23;11625;-70
2021/01/25 04:08:37;;;;;;;;;35.25;35.25;;;;;7.61;75.81;100822.50;6155262;23;11622;-70
2021/01/25 04:11:05;;;;;;;;;34.50;34.00;;;;;7.69;75.83;100821.75;6164633;23;11628;-70
2021/01/25 04:14:00;;;;;;;;;41.50;37.50;;;;;7.72;76.10;100821.13;6156375;23;11601;-70
2021/01/25 04:16:56;;;;;;;;;37.00;35.75;;;;;7.65;76.42;100820.75;6155343;23;11035;-70
2021/01/25 04:19:37;;;;;;;;;41.50;39.00;;;;;7.71;76.10;100823.06;6156889;23;11650;-70
2021/01/25 04:22:33;;;;;;;;;38.50;36.25;;;;;7.77;75.92;100824.59;6155431;23;11647;-70
2021/01/25 04:25:28;;;;;;;;;45.50;40.50;;;;;7.82;75.54;100812.69;6155387;23;11608;-70
2021/01/25 04:28:24;;;;;;;;;34.00;33.50;;;;;7.74;75.91;100816.13;6155106;23;11730;-70
2021/01/25 04:31:19;;;;;;;;;35.50;35.50;;;;;7.83;75.61;100821.75;6155217;23;11572;-70
2021/01/25 04:34:15;;;;;;;;;29.50;29.00;;;;;7.69;75.88;100821.75;6135911;23;11615;-70
2021/01/25 04:37:10;;;;;;;;;47.75;43.25;;;;;7.80;75.79;100817.66;6155293;23;11699;-70
2021/01/25 04:40:07;;;;;;;;;32.75;32.00;;;;;7.78;75.94;100823.47;6155128;23;11720;-70
2021/01/25 04:43:04;;;;;;;;;38.75;35.25;;;;;7.84;75.66;100815.94;6154846;23;11594;-71
2021/01/25 04:46:00;;;;;;;;;32.25;32.25;;;;;7.86;75.21;100816.44;6136691;23;11650;-70
2021/01/25 04:48:55;;;;;;;;;25.25;25.25;;;;;7.85;75.34;100817.56;6154940;23;11588;-70
2021/01/25 04:51:52;;;;;;;;;33.00;33.00;;;;;7.69;75.91;100816.25;6155158;23;11597;-70
2021/01/25 04:54:49;;;;;;;;;40.25;39.25;;;;;7.87;75.64;100814.47;6155165;23;11784;-70
2021/01/25 04:57:45;;;;;;;;;39.00;37.25;;;;;7.85;75.24;100808.47;6154574;23;11718;-70
2021/01/25 05:00:41;;;;;;;;;42.00;40.25;;;;;7.93;75.61;100816.00;6155054;23;11716;-70
2021/01/25 05:03:08;;;;;;;;;30.50;30.50;;;;;7.97;75.28;100820.56;6165237;23;11585;-70
2021/01/25 05:06:04;;;;;;;;;41.50;37.75;;;;;7.95;75.47;100811.81;6135157;23;11643;-70
2021/01/25 05:09:00;;;;;;;;;35.00;34.00;;;;;8.06;74.84;100817.91;6135372;23;12383;-70
2021/01/25 05:11:57;;;;;;;;;35.00;32.25;;;;;8.08;74.61;100815.66;6154848;23;11639;-70
2021/01/25 05:14:43;;;;;;;;;29.25;29.25;;;;;8.02;75.26;100817.72;6157030;23;11607;-70
2021/01/25 05:17:39;;;;;;;;;37.00;35.25;;;;;8.13;74.44;100817.47;6135113;23;11768;-70
2021/01/25 05:20:35;;;;;;;;;26.00;26.00;;;;;8.16;74.70;100817.66;6154899;23;12302;-71
2021/01/25 05:23:38;;;;;;;;;31.75;30.25;;;;;8.19;74.23;100821.72;6154228;23;11670;-72
2021/01/25 05:26:35;;;;;;;;;35.25;31.50;;;;;8.16;74.22;100814.91;6154626;23;11610;-73
2021/01/25 05:29:30;;;;;;;;;27.50;27.50;;;;;8.11;74.75;100819.72;6154813;23;11607;-73
2021/01/25 05:32:26;;;;;;;;;31.25;30.50;;;;;8.14;74.41;100824.63;6154495;23;11688;-72
2021/01/25 05:35:28;;;;;;;;;33.00;29.00;;;;;8.22;73.83;100832.16;6154672;23;11619;-73
2021/01/25 05:38:23;;;;;;;;;31.50;31.00;;;;;8.17;74.33;100835.00;6135172;23;11582;-73
2021/01/25 05:40:56;;;;;;;;;28.00;28.00;;;;;8.21;73.94;100822.25;6139192;23;11672;-72
2021/01/25 05:43:31;;;;;;;;;27.50;27.00;;;;;8.22;74.03;100826.63;6139203;23;11619;-72
2021/01/25 05:46:09;;;;;;;;;33.00;31.75;;;;;8.14;74.15;100822.69;6164522;23;12279;-72
2021/01/25 05:48:37;;;;;;;;;33.00;31.25;;;;;8.07;73.68;100825.88;6164703;23;11576;-73
2021/01/25 05:51:13;;;;;;;;;20.25;16.75;;;;;8.05;73.95;100825.38;6155811;23;11587;-72
2021/01/25 05:53:43;;;;;;;;;27.00;27.00;;;;;8.15;73.72;100821.56;6163957;23;11641;-73
2021/01/25 05:56:38;;;;;;;;;30.00;26.00;;;;;8.19;73.38;100824.47;6154727;23;11602;-73
2021/01/25 05:59:34;;;;;;;;;24.25;24.25;;;;;8.27;73.05;100813.53;6154499;23;11650;-73
2021/01/25 06:02:33;;;;;;;;;10.25;10.25;;;;;8.20;73.06;100815.09;6154670;23;11704;-72
2021/01/25 06:05:32;;;;;;;;;26.75;26.75;;;;;8.26;73.04;100806.41;6154706;23;11707;-72
2021/01/25 06:08:47;;;;;;;;;29.75;28.75;;;;;8.26;72.44;100811.09;6153181;23;11690;-72
2021/01/25 06:11:46;;;;;;;;;26.25;26.25;;;;;8.38;72.21;100819.66;6154230;23;11590;-72
2021/01/25 06:14:51;;;;;;;;;24.25;24.25;;;;;8.27;72.76;100835.56;6156099;23;11572;-72
2021/01/25 06:17:48;;;;;;;;;23.75;23.50;;;;;8.36;72.01;100832.94;6134566;23;11682;-72
2021/01/25 06:20:46;;;;;;;;;25.25;24.75;;;;;8.24;72.46;100832.63;6154197;23;11621;-71
2021/01/25 06:23:43;;;;;;;;;32.50;28.00;;;;;8.22;72.89;100832.97;6154033;23;11635;-71
2021/01/25 06:26:40;;;;;;;;;32.00;28.25;;;;;8.25;72.59;100826.81;6153813;23;11682;-71
2021/01/25 06:29:36;;;;;;;;;24.75;23.25;;;;;8.38;72.39;100827.13;6134589;23;11593;-71
2021/01/25 06:32:33;;;;;;;;;29.75;27.75;;;;;8.47;72.26;100831.56;6153889;23;11569;-71
2021/01/25 06:35:31;;;;;;;;;28.50;25.00;;;;;8.56;72.11;100824.16;6154345;23;11636;-71
2021/01/25 06:37:59;;;;;;;;;28.25;25.00;;;;;8.60;71.87;100827.13;6164259;23;11653;-71
2021/01/25 06:40:55;;;;;;;;;33.50;28.50;;;;;8.78;71.53;100828.03;6153844;23;11675;-72
2021/01/25 06:43:50;;;;;;;;;25.25;25.00;;;;;8.70;71.22;100831.56;6153680;23;11687;-72
2021/01/25 06:46:46;;;;;;;;;24.75;23.25;;;;;8.77;70.70;100829.97;6153491;23;11628;-72
2021/01/25 06:49:17;;;;;;;;;23.50;23.50;;;;;8.79;71.11;100840.69;6138636;23;11610;-72
2021/01/25 06:52:14;;;;;;;;;28.25;27.75;;;;;9.07;72.84;100836.63;6153645;23;11631;-72
2021/01/25 06:55:10;;;;;;;;;46.75;43.00;;;;;9.55;76.69;100833.06;6153745;23;11621;-72
2021/01/25 06:58:06;;;;;;;;;19.50;19.50;;;;;9.57;74.72;100833.56;6153862;23;11633;-72
2021/01/25 07:00:53;;;;;;;;;31.50;31.50;;;;;9.72;72.16;100819.31;6154554;23;11637;-72
2021/01/25 07:03:51;;;;;;;;;28.00;28.00;;;;;10.45;78.64;100835.34;6133902;23;11608;-72
2021/01/25 07:06:51;;;;;;;;;37.25;36.50;;;;;10.45;77.19;100832.56;6153667;23;11612;-72
2021/01/25 07:09:47;;;;;;;;;43.25;40.25;;;;;10.88;79.28;100832.47;6153750;23;11610;-72
2021/01/25 07:12:15;;;;;;;;;34.25;34.25;;;;;10.61;73.42;100835.63;6163751;23;11697;-72
2021/01/25 07:15:11;;;;;;;;;26.00;26.00;;;;;11.11;77.62;100830.28;6134282;23;11523;-72
2021/01/25 07:18:07;;;;;;;;;66.75;55.25;;;;;11.33;79.39;100827.28;6153104;23;12256;-71
2021/01/25 07:20:34;;;;;;;;;24.75;24.50;;;;;11.10;73.94;100820.38;6163375;23;11651;-73
2021/01/25 07:23:05;;;;;;;;;33.25;32.00;;;;;11.24;75.79;100820.97;6137756;23;11528;-72
2021/01/25 07:25:32;;;;;;;;;34.25;34.00;;;;;11.30;76.16;100833.50;6163569;23;11543;-75
2021/01/25 07:28:03;;;;;;;;;29.00;27.25;;;;;11.11;70.64;100836.63;6155189;23;12351;-74
2021/01/25 07:30:33;;;;;;;;;23.00;22.50;;;;;11.45;71.14;100845.16;6130298;23;11546;-71
2021/01/25 07:33:04;;;;;;;;;36.25;34.25;;;;;11.39;73.38;100828.72;6163515;23;11511;-72
2021/01/25 07:35:33;;;;;;;;;32.75;30.75;;;;;11.64;75.79;100821.41;6163439;23;11579;-72
2021/01/25 07:38:00;;;;;;;;;30.50;30.50;;;;;11.95;73.32;100823.03;6163632;23;11611;-72
2021/01/25 07:40:27;;;;;;;;;25.00;25.00;;;;;11.39;65.06;100825.94;6155295;23;11516;-72
2021/01/25 07:42:54;;;;;;;;;30.00;27.75;;;;;11.36;66.24;100832.16;6154840;23;11576;-72
2021/01/25 07:45:22;;;;;;;;;23.50;22.50;;;;;11.54;68.87;100818.22;6163481;23;11587;-71
2021/01/25 07:47:50;;;;;;;;;20.75;20.00;;;;;11.35;64.12;100824.19;6154875;23;11544;-72
2021/01/25 07:50:17;;;;;;;;;28.25;24.75;;;;;11.10;65.79;100831.44;6141716;22;11206;-72
2021/01/25 07:52:59;;;;;;;;;86.67;64.33;;;;;11.85;76.71;100815.94;6254079;23;11509;-72
2021/01/25 07:55:55;;;;;;;;;47.50;40.75;;;;;11.66;68.83;100823.88;6244330;23;8793;-74
2021/01/25 07:59:04;;;;;;;;;28.50;26.75;;;;;11.62;67.61;100825.69;6244032;22;11519;-73
2021/01/25 08:02:03;;;;;;;;;26.50;25.25;;;;;11.52;67.81;100818.56;6243450;23;11152;-72
2021/01/25 08:05:00;;;;;;;;;30.00;27.50;;;;;11.66;67.13;100815.56;6243294;23;11435;-72
2021/01/25 08:07:56;;;;;;;;;24.25;23.00;;;;;11.58;65.60;100816.44;6243401;23;11457;-72
2021/01/25 08:10:54;;;;;;;;;58.25;45.00;;;;;12.00;70.36;100810.97;6243690;23;11342;-73
2021/01/25 08:14:01;;;;;;;;;7.75;7.75;;;;;11.67;63.80;100812.44;6243568;23;11478;-73
2021/01/25 08:16:37;;;;;;;;;23.75;23.75;;;;;11.59;63.45;100821.63;6227452;23;11026;-72
2021/01/25 08:19:21;;;;;;;;;24.50;24.00;;;;;11.54;63.69;100818.22;6253154;23;11138;-73
2021/01/25 08:22:03;;;;;;;;;34.75;30.00;;;;;11.59;64.56;100816.09;6253508;23;11108;-72
2021/01/25 08:24:32;;;;;;;;;21.00;19.00;;;;;11.59;63.48;100818.84;6252289;23;11235;-73
2021/01/25 08:27:16;;;;;;;;;22.25;22.25;;;;;11.48;64.35;100822.31;6244847;23;10923;-73
2021/01/25 08:30:16;;;;;;;;;24.25;23.00;;;;;11.54;64.32;100818.22;6243392;23;11067;-73
2021/01/25 08:33:15;;;;;;;;;21.25;21.25;;;;;11.65;64.42;100813.91;6244430;23;11023;-73
2021/01/25 08:36:35;;;;;;;;;21.50;21.50;;;;;11.64;64.87;100802.03;6245052;23;11125;-73
2021/01/25 08:39:17;;;;;;;;;22.25;20.25;;;;;11.75;64.40;100802.47;6255305;23;11081;-73
2021/01/25 08:42:18;;;;;;;;;24.50;24.50;;;;;11.79;64.14;100795.09;6246277;22;10831;-73
2021/01/25 08:45:13;;;;;;;;;25.25;25.25;;;;;11.86;64.10;100798.16;6254949;23;11922;-73
2021/01/25 08:48:09;;;;;;;;;21.50;21.00;;;;;11.90;63.43;100798.31;6244891;23;11064;-73
2021/01/25 08:51:25;;;;;;;;;15.75;15.75;;;;;11.94;63.97;100797.28;6244396;23;11013;-73
2021/01/25 08:54:26;;;;;;;;;18.75;18.00;;;;;11.56;64.60;100808.44;6246385;22;10823;-73
2021/01/25 08:57:33;;;;;;;;;22.50;21.25;;;;;11.48;64.86;100794.63;6225216;23;11478;-73
2021/01/25 09:00:34;;;;;;;;;19.75;19.75;;;;;11.40;65.47;100799.88;6237303;23;11079;-73
2021/01/25 09:03:30;;;;;;;;;20.50;20.00;;;;;11.54;65.15;100807.16;6244474;23;10981;-72
2021/01/25 09:06:26;;;;;;;;;19.75;19.75;;;;;11.49;65.46;100791.53;6242929;23;11260;-73
2021/01/25 09:09:21;;;;;;;;;22.25;20.75;;;;;11.50;65.92;100787.63;6244000;23;11692;-73
2021/01/25 09:12:18;;;;;;;;;28.50;25.00;;;;;11.76;65.42;100783.88;6246021;23;11168;-72
2021/01/25 09:15:18;;;;;;;;;14.50;14.50;;;;;11.99;65.07;100781.63;6245809;23;11323;-72
2021/01/25 09:18:13;;;;;;;;;20.00;19.00;;;;;12.14;64.48;100776.28;6262730;22;11020;-72
2021/01/25 09:21:09;;;;;;;;;17.75;17.75;;;;;12.37;63.99;100773.94;6245454;23;10910;-72
2021/01/25 09:24:05;;;;;;;;;18.25;18.00;;;;;12.50;63.45;100758.16;6244831;23;10839;-73
2021/01/25 09:27:00;;;;;;;;;18.00;18.00;;;;;12.45;63.63;100750.06;6243583;23;10689;-73
2021/01/25 09:29:56;;;;;;;;;18.25;18.25;;;;;12.35;63.52;100739.41;6245439;23;10668;-72
2021/01/25 09:32:51;;;;;;;;;15.00;14.50;;;;;12.26;64.15;100742.22;6245905;23;10474;-72
2021/01/25 09:35:47;;;;;;;;;22.50;21.50;;;;;12.22;63.88;100742.13;6243553;23;10756;-73
2021/01/25 09:38:42;;;;;;;;;20.75;20.75;;;;;12.14;64.39;100758.84;6244933;23;10831;-73
2021/01/25 09:41:39;;;;;;;;;18.50;16.75;;;;;12.26;63.82;100750.53;6245647;23;10874;-73
2021/01/25 09:44:36;;;;;;;;;24.25;22.00;;;;;12.18;64.68;100748.66;6243039;23;10888;-73
2021/01/25 09:47:26;;;;;;;;;23.00;22.00;;;;;11.95;65.25;100746.25;6246210;23;10963;-73
2021/01/25 09:50:21;;;;;;;;;25.00;22.00;;;;;12.08;65.21;100738.00;6245587;23;10682;-73
2021/01/25 09:53:17;;;;;;;;;26.25;26.25;;;;;12.08;66.20;100719.41;6245615;23;10837;-73
2021/01/25 09:56:13;;;;;;;;;24.25;23.50;;;;;12.13;67.35;100715.63;6245064;23;11099;-72
2021/01/25 09:59:08;;;;;;;;;25.25;24.00;;;;;12.16;67.26;100709.38;6245002;22;11086;-73
2021/01/25 10:02:04;;;;;;;;;19.75;19.75;;;;;12.18;67.31;100696.00;6223562;23;10937;-73
2021/01/25 10:04:59;;;;;;;;;19.50;19.50;;;;;12.20;67.72;100700.06;6243846;23;10894;-73
2021/01/25 10:07:56;;;;;;;;;25.25;25.25;;;;;12.29;67.69;100711.06;6243862;23;10870;-73
2021/01/25 10:10:52;;;;;;;;;24.00;24.00;;;;;12.37;67.39;100707.38;6244013;23;10777;-73
2021/01/25 10:13:48;;;;;;;;;25.50;25.25;;;;;12.49;67.60;100699.06;6224390;23;10931;-73
2021/01/25 10:16:43;;;;;;;;;27.00;26.75;;;;;12.59;67.99;100702.59;6223786;23;10819;-71
2021/01/25 10:19:11;;;;;;;;;18.25;18.25;;;;;12.59;67.16;100711.72;6228328;23;10987;-75
2021/01/25 10:21:37;;;;;;;;;28.25;27.00;;;;;12.62;66.55;100708.25;6254570;23;10824;-73
2021/01/25 10:24:33;;;;;;;;;22.25;22.25;;;;;12.75;66.55;100697.97;6244465;22;10873;-73
2021/01/25 10:27:29;;;;;;;;;22.50;21.50;;;;;12.80;66.19;100693.03;6223686;23;10827;-73
2021/01/25 10:29:57;;;;;;;;;33.50;27.50;;;;;13.08;65.30;100679.25;6254672;23;10693;-73
2021/01/25 10:32:52;;;;;;;;;23.00;23.00;;;;;13.15;64.72;100672.31;6243848;23;10618;-73
2021/01/25 10:35:48;;;;;;;;;22.25;22.25;;;;;13.11;64.11;100663.84;6244000;23;10649;-73
2021/01/25 10:38:16;;;;;;;;;22.00;22.00;;;;;13.26;64.36;100652.06;6254366;23;11405;-72
2021/01/25 10:40:43;;;;;;;;;22.75;22.75;;;;;13.48;64.04;100652.72;6228035;23;10190;-73
2021/01/25 10:43:39;;;;;;;;;18.00;18.00;;;;;13.61;63.15;100638.44;6243623;23;10217;-69
2021/01/25 10:46:06;;;;;;;;;24.00;23.50;;;;;13.86;63.93;100641.13;6254337;23;10405;-70
2021/01/25 10:49:01;;;;;;;;;23.00;22.50;;;;;13.92;62.46;100645.25;6244011;23;10220;-70
2021/01/25 10:51:37;;;;;;;;;24.25;24.25;;;;;14.05;62.34;100643.25;6245116;23;10323;-70
2021/01/25 10:54:33;;;;;;;;;24.75;24.75;;;;;14.18;62.14;100640.06;6244064;23;10211;-70
2021/01/25 10:57:01;;;;;;;;;22.25;22.25;;;;;14.21;62.25;100643.28;6254223;23;10408;-70
2021/01/25 10:59:56;;;;;;;;;17.25;17.25;;;;;14.37;62.27;100631.00;6242997;23;10225;-70
2021/01/25 11:02:28;;;;;;;;;14.50;14.50;;;;;14.77;61.02;100629.22;6254206;23;10672;-70
2021/01/25 11:05:27;;;;;;;;;14.00;14.00;;;;;15.00;60.34;100625.41;6223670;23;9706;-70
2021/01/25 11:08:23;;;;;;;;;18.00;18.00;;;;;14.90;60.19;100620.41;6244753;23;9810;-70
2021/01/25 11:11:20;;;;;;;;;15.25;15.25;;;;;14.78;60.77;100614.13;6242265;23;9838;-71
2021/01/25 11:14:15;;;;;;;;;19.00;18.00;;;;;14.60;60.75;100611.72;6223728;23;9830;-71
2021/01/25 11:16:42;;;;;;;;;14.25;13.75;;;;;14.42;61.00;100619.59;6253801;23;9665;-71
2021/01/25 11:19:39;;;;;;;;;17.00;17.00;;;;;14.34;61.84;100615.03;6243926;23;9913;-71
2021/01/25 11:22:20;;;;;;;;;17.25;16.50;;;;;14.21;62.34;100615.47;6252747;23;9884;-72
2021/01/25 11:25:16;;;;;;;;;17.00;17.00;;;;;14.10;62.48;100610.41;6245094;23;9835;-71
2021/01/25 11:28:11;;;;;;;;;20.50;20.50;;;;;14.09;62.94;100605.19;6243564;23;9943;-72
2021/01/25 11:31:08;;;;;;;;;20.00;20.00;;;;;13.90;63.19;100603.13;6223983;23;10045;-71
2021/01/25 11:33:46;;;;;;;;;18.00;18.00;;;;;14.00;62.85;100601.78;6245272;23;9892;-71
2021/01/25 11:36:58;;;;;;;;;23.75;23.75;;;;;13.95;63.28;100599.25;6226882;23;9953;-70
2021/01/25 11:39:53;;;;;;;;;21.25;20.00;;;;;13.91;63.14;100599.16;6243994;23;10129;-71
2021/01/25 11:42:49;;;;;;;;;22.25;22.25;;;;;13.80;63.33;100598.88;6243230;23;10930;-71
2021/01/25 11:45:45;;;;;;;;;24.50;23.50;;;;;13.79;63.61;100593.66;6223662;23;10230;-71
2021/01/25 11:48:39;;;;;;;;;17.75;17.75;;;;;13.70;63.93;100577.16;6244880;23;10303;-71
2021/01/25 11:51:10;;;;;;;;;23.00;21.75;;;;;13.70;63.82;100588.25;6254017;23;10158;-71
2021/01/25 11:53:46;;;;;;;;;18.75;18.75;;;;;13.69;64.13;100588.63;6252596;23;10322;-71
2021/01/25 11:56:28;;;;;;;;;17.00;16.50;;;;;13.63;63.46;100588.06;6244470;23;10834;-70
2021/01/25 11:59:24;;;;;;;;;17.50;17.00;;;;;13.56;64.18;100591.44;6222548;23;10130;-71
2021/01/25 12:02:03;;;;;;;;;21.25;19.50;;;;;13.55;64.54;100603.72;6253107;22;10277;-71
2021/01/25 12:04:59;;;;;;;;;19.25;19.00;;;;;13.44;64.75;100596.25;6262989;22;10307;-71
2021/01/25 12:07:57;;;;;;;;;23.00;22.00;;;;;13.51;64.54;100597.28;6245888;22;10438;-71
2021/01/25 12:10:28;;;;;;;;;20.00;20.00;;;;;13.52;64.38;100592.53;6255838;22;10103;-71
2021/01/25 12:13:24;;;;;;;;;21.75;21.00;;;;;13.56;64.60;100594.22;6246726;23;10198;-71
2021/01/25 12:16:20;;;;;;;;;18.00;18.00;;;;;13.50;64.50;100595.66;6246288;23;10409;-71
2021/01/25 12:19:10;;;;;;;;;16.75;15.75;;;;;13.63;64.02;100607.50;6247592;22;10353;-71
2021/01/25 12:22:05;;;;;;;;;17.00;16.25;;;;;13.47;64.48;100609.44;6246655;23;10396;-72
2021/01/25 12:24:32;;;;;;;;;14.00;14.00;;;;;13.38;64.69;100608.75;6255842;23;10361;-72
2021/01/25 12:27:28;;;;;;;;;16.50;15.50;;;;;13.32;64.89;100600.66;6246375;22;10371;-71
2021/01/25 12:30:24;;;;;;;;;16.50;16.00;;;;;13.34;65.01;100597.53;6246524;23;10181;-72
2021/01/25 12:33:20;;;;;;;;;17.75;17.75;;;;;13.23;65.67;100599.19;6246221;22;9977;-71
2021/01/25 12:36:17;;;;;;;;;17.75;17.00;;;;;13.16;65.40;100605.31;6245294;23;10183;-71
2021/01/25 12:39:12;;;;;;;;;14.25;14.25;;;;;13.14;65.31;100604.06;6246521;23;10294;-71
2021/01/25 12:42:08;;;;;;;;;16.75;16.75;;;;;13.03;65.90;100604.53;6245950;23;10190;-73
2021/01/25 12:45:05;;;;;;;;;17.50;16.00;;;;;12.98;66.24;100590.88;6245877;22;10393;-71
2021/01/25 12:48:01;;;;;;;;;7.25;7.25;;;;;13.03;66.00;100596.22;6246116;23;10500;-71
2021/01/25 12:50:56;;;;;;;;;15.25;15.25;;;;;12.95;66.62;100590.75;6245723;22;10352;-70
2021/01/25 12:53:52;;;;;;;;;15.50;15.50;;;;;12.94;66.51;100584.41;6245830;23;10686;-70
2021/01/25 12:56:19;;;;;;;;;18.25;17.50;;;;;12.95;66.50;100586.03;6255279;22;10409;-70
2021/01/25 12:58:46;;;;;;;;;23.75;23.50;;;;;12.82;67.20;100587.22;6246818;22;10686;-70
2021/01/25 13:01:41;;;;;;;;;21.00;21.00;;;;;12.89;66.81;100576.34;6245756;23;10519;-70